sensor_id;sensor_type;location;lat;lon;timestamp;temperature;humidity
60495;DHT22;46342;49.046;11.920;2022-10-31T00:01:00;14.00;66.90
60495;DHT22;46342;49.046;11.920;2022-10-31T00:03:26;13.90;66.70
60495;DHT22;46342;49.046;11.920;2022-10-31T00:05:52;13.90;67.70
60495;DHT22;46342;49.046;11.920;2022-10-31T00:08:18;13.90;66.70
60495;DHT22;46342;49.046;11.920;2022-10-31T00:10:45;13.80;66.60
60495;DHT22;46342;49.046;11.920;2022-10-31T00:13:12;13.80;66.60
60495;DHT22;46342;49.046;11.920;2022-10-31T00:15:39;13.80;66.70
60495;DHT22;46342;49.046;11.920;2022-10-31T00:18:06;13.80;66.80
60495;DHT22;46342;49.046;11.920;2022-10-31T00:20:32;13.70;66.80
60495;DHT22;46342;49.046;11.920;2022-10-31T00:22:59;13.70;66.80
60495;DHT22;46342;49.046;11.920;2022-10-31T00:25:26;13.70;66.90
60495;DHT22;46342;49.046;11.920;2022-10-31T00:27:52;13.70;66.90
60495;DHT22;46342;49.046;11.920;2022-10-31T00:30:17;13.60;66.90
60495;DHT22;46342;49.046;11.920;2022-10-31T00:32:43;13.60;66.70
60495;DHT22;46342;49.046;11.920;2022-10-31T00:35:09;13.50;66.60
60495;DHT22;46342;49.046;11.920;2022-10-31T00:37:34;13.50;66.70
60495;DHT22;46342;49.046;11.920;2022-10-31T00:40:00;13.50;66.70
60495;DHT22;46342;49.046;11.920;2022-10-31T00:42:25;13.50;66.70
60495;DHT22;46342;49.046;11.920;2022-10-31T00:44:51;13.50;66.70
60495;DHT22;46342;49.046;11.920;2022-10-31T00:47:17;13.40;66.70
60495;DHT22;46342;49.046;11.920;2022-10-31T00:49:42;13.40;66.70
60495;DHT22;46342;49.046;11.920;2022-10-31T00:52:08;13.40;66.80
60495;DHT22;46342;49.046;11.920;2022-10-31T00:54:33;13.40;66.90
60495;DHT22;46342;49.046;11.920;2022-10-31T00:56:59;13.40;67.00
60495;DHT22;46342;49.046;11.920;2022-10-31T00:59:24;13.30;67.00
60495;DHT22;46342;49.046;11.920;2022-10-31T01:01:50;13.30;67.00
60495;DHT22;46342;49.046;11.920;2022-10-31T01:04:15;13.30;67.10
60495;DHT22;46342;49.046;11.920;2022-10-31T01:06:41;13.30;67.00
60495;DHT22;46342;49.046;11.920;2022-10-31T01:09:07;13.30;67.10
60495;DHT22;46342;49.046;11.920;2022-10-31T01:11:33;13.20;67.00
60495;DHT22;46342;49.046;11.920;2022-10-31T01:13:58;13.20;67.00
60495;DHT22;46342;49.046;11.920;2022-10-31T01:16:26;13.20;67.00
60495;DHT22;46342;49.046;11.920;2022-10-31T01:18:52;13.20;67.10
60495;DHT22;46342;49.046;11.920;2022-10-31T01:21:23;13.20;67.00
60495;DHT22;46342;49.046;11.920;2022-10-31T01:23:50;13.10;66.90
60495;DHT22;46342;49.046;11.920;2022-10-31T01:26:18;13.10;66.90
60495;DHT22;46342;49.046;11.920;2022-10-31T01:28:53;13.10;66.90
60495;DHT22;46342;49.046;11.920;2022-10-31T01:31:21;13.10;67.30
60495;DHT22;46342;49.046;11.920;2022-10-31T01:33:47;13.10;67.00
60495;DHT22;46342;49.046;11.920;2022-10-31T01:36:32;13.00;66.80
60495;DHT22;46342;49.046;11.920;2022-10-31T01:39:03;13.00;67.00
60495;DHT22;46342;49.046;11.920;2022-10-31T01:41:32;13.00;66.80
60495;DHT22;46342;49.046;11.920;2022-10-31T01:44:00;13.00;66.90
60495;DHT22;46342;49.046;11.920;2022-10-31T01:46:30;12.90;66.80
60495;DHT22;46342;49.046;11.920;2022-10-31T01:48:57;12.90;68.00
60495;DHT22;46342;49.046;11.920;2022-10-31T01:51:26;12.90;66.60
60495;DHT22;46342;49.046;11.920;2022-10-31T01:53:55;12.90;67.00
60495;DHT22;46342;49.046;11.920;2022-10-31T01:56:22;12.90;66.60
60495;DHT22;46342;49.046;11.920;2022-10-31T01:58:48;12.80;66.50
60495;DHT22;46342;49.046;11.920;2022-10-31T02:01:16;12.80;66.60
60495;DHT22;46342;49.046;11.920;2022-10-31T02:03:42;12.70;66.60
60495;DHT22;46342;49.046;11.920;2022-10-31T02:06:13;12.70;66.60
60495;DHT22;46342;49.046;11.920;2022-10-31T02:08:43;12.70;66.70
60495;DHT22;46342;49.046;11.920;2022-10-31T02:11:09;12.70;66.60
60495;DHT22;46342;49.046;11.920;2022-10-31T02:13:36;12.70;66.70
60495;DHT22;46342;49.046;11.920;2022-10-31T02:16:02;12.70;66.70
60495;DHT22;46342;49.046;11.920;2022-10-31T02:18:30;12.60;66.60
60495;DHT22;46342;49.046;11.920;2022-10-31T02:21:15;12.60;66.70
60495;DHT22;46342;49.046;11.920;2022-10-31T02:32:50;12.50;66.90
60495;DHT22;46342;49.046;11.920;2022-10-31T02:35:23;12.50;66.70
60495;DHT22;46342;49.046;11.920;2022-10-31T02:46:48;12.40;67.00
60495;DHT22;46342;49.046;11.920;2022-10-31T02:49:36;12.50;67.20
60495;DHT22;46342;49.046;11.920;2022-10-31T02:52:14;12.40;67.10
60495;DHT22;46342;49.046;11.920;2022-10-31T02:54:41;12.30;66.80
60495;DHT22;46342;49.046;11.920;2022-10-31T02:57:08;12.30;66.90
60495;DHT22;46342;49.046;11.920;2022-10-31T02:59:35;12.30;66.50
60495;DHT22;46342;49.046;11.920;2022-10-31T03:05:28;12.20;67.00
60495;DHT22;46342;49.046;11.920;2022-10-31T03:11:03;12.20;67.20
60495;DHT22;46342;49.046;11.920;2022-10-31T03:13:43;12.20;67.00
60495;DHT22;46342;49.046;11.920;2022-10-31T03:16:20;12.10;67.00
60495;DHT22;46342;49.046;11.920;2022-10-31T03:19:10;12.10;66.80
60495;DHT22;46342;49.046;11.920;2022-10-31T03:22:16;12.10;67.40
60495;DHT22;46342;49.046;11.920;2022-10-31T03:24:43;12.10;67.30
60495;DHT22;46342;49.046;11.920;2022-10-31T03:27:12;12.00;66.70
60495;DHT22;46342;49.046;11.920;2022-10-31T03:29:40;12.00;66.80
60495;DHT22;46342;49.046;11.920;2022-10-31T03:34:36;12.00;67.10
60495;DHT22;46342;49.046;11.920;2022-10-31T03:37:04;12.00;67.40
60495;DHT22;46342;49.046;11.920;2022-10-31T03:39:32;11.90;66.70
60495;DHT22;46342;49.046;11.920;2022-10-31T03:42:32;11.90;66.70
60495;DHT22;46342;49.046;11.920;2022-10-31T03:45:07;11.90;67.30
60495;DHT22;46342;49.046;11.920;2022-10-31T03:47:35;11.90;67.40
60495;DHT22;46342;49.046;11.920;2022-10-31T03:50:03;11.80;67.00
60495;DHT22;46342;49.046;11.920;2022-10-31T03:52:34;11.80;67.00
60495;DHT22;46342;49.046;11.920;2022-10-31T03:56:02;11.80;67.30
60495;DHT22;46342;49.046;11.920;2022-10-31T03:58:35;11.80;67.90
60495;DHT22;46342;49.046;11.920;2022-10-31T04:01:04;11.80;67.70
60495;DHT22;46342;49.046;11.920;2022-10-31T04:03:33;11.70;67.10
60495;DHT22;46342;49.046;11.920;2022-10-31T04:06:06;11.70;67.20
60495;DHT22;46342;49.046;11.920;2022-10-31T04:08:36;11.70;67.20
60495;DHT22;46342;49.046;11.920;2022-10-31T04:11:05;11.70;67.20
60495;DHT22;46342;49.046;11.920;2022-10-31T04:13:33;11.70;67.20
60495;DHT22;46342;49.046;11.920;2022-10-31T04:15:59;11.70;67.20
60495;DHT22;46342;49.046;11.920;2022-10-31T04:18:25;11.70;67.10
60495;DHT22;46342;49.046;11.920;2022-10-31T04:21:02;11.70;67.20
60495;DHT22;46342;49.046;11.920;2022-10-31T04:23:29;11.70;67.50
60495;DHT22;46342;49.046;11.920;2022-10-31T04:25:55;11.60;67.10
60495;DHT22;46342;49.046;11.920;2022-10-31T04:28:20;11.60;67.20
60495;DHT22;46342;49.046;11.920;2022-10-31T04:30:46;11.60;67.20
60495;DHT22;46342;49.046;11.920;2022-10-31T04:33:11;11.60;67.30
60495;DHT22;46342;49.046;11.920;2022-10-31T04:35:37;11.60;67.30
60495;DHT22;46342;49.046;11.920;2022-10-31T04:38:03;11.60;67.40
60495;DHT22;46342;49.046;11.920;2022-10-31T04:40:28;11.60;67.40
60495;DHT22;46342;49.046;11.920;2022-10-31T04:42:54;11.60;67.50
60495;DHT22;46342;49.046;11.920;2022-10-31T04:45:19;11.60;67.60
60495;DHT22;46342;49.046;11.920;2022-10-31T04:47:45;11.60;67.60
60495;DHT22;46342;49.046;11.920;2022-10-31T04:50:10;11.60;67.70
60495;DHT22;46342;49.046;11.920;2022-10-31T04:52:40;11.60;67.60
60495;DHT22;46342;49.046;11.920;2022-10-31T04:55:07;11.60;68.00
60495;DHT22;46342;49.046;11.920;2022-10-31T04:57:32;11.60;67.80
60495;DHT22;46342;49.046;11.920;2022-10-31T04:59:58;11.60;67.80
60495;DHT22;46342;49.046;11.920;2022-10-31T05:02:23;11.60;67.90
60495;DHT22;46342;49.046;11.920;2022-10-31T05:04:49;11.60;68.00
60495;DHT22;46342;49.046;11.920;2022-10-31T05:07:14;11.60;68.00
60495;DHT22;46342;49.046;11.920;2022-10-31T05:09:40;11.60;68.00
60495;DHT22;46342;49.046;11.920;2022-10-31T05:12:06;11.60;68.00
60495;DHT22;46342;49.046;11.920;2022-10-31T05:14:31;11.70;68.20
60495;DHT22;46342;49.046;11.920;2022-10-31T05:16:57;11.70;68.30
60495;DHT22;46342;49.046;11.920;2022-10-31T05:19:22;11.70;68.30
60495;DHT22;46342;49.046;11.920;2022-10-31T05:21:48;11.70;68.30
60495;DHT22;46342;49.046;11.920;2022-10-31T05:24:13;11.70;68.40
60495;DHT22;46342;49.046;11.920;2022-10-31T05:26:39;11.70;68.50
60495;DHT22;46342;49.046;11.920;2022-10-31T05:29:04;11.70;68.50
60495;DHT22;46342;49.046;11.920;2022-10-31T05:31:30;11.70;68.60
60495;DHT22;46342;49.046;11.920;2022-10-31T05:33:56;11.70;68.60
60495;DHT22;46342;49.046;11.920;2022-10-31T05:36:21;11.70;68.50
60495;DHT22;46342;49.046;11.920;2022-10-31T05:38:47;11.70;68.50
60495;DHT22;46342;49.046;11.920;2022-10-31T05:41:12;11.70;68.50
60495;DHT22;46342;49.046;11.920;2022-10-31T05:43:38;11.70;68.40
60495;DHT22;46342;49.046;11.920;2022-10-31T05:46:03;11.70;68.30
60495;DHT22;46342;49.046;11.920;2022-10-31T05:48:29;11.70;68.20
60495;DHT22;46342;49.046;11.920;2022-10-31T05:50:55;11.70;68.10
60495;DHT22;46342;49.046;11.920;2022-10-31T05:53:20;11.70;68.10
60495;DHT22;46342;49.046;11.920;2022-10-31T05:55:46;11.70;68.10
60495;DHT22;46342;49.046;11.920;2022-10-31T05:58:12;11.70;68.10
60495;DHT22;46342;49.046;11.920;2022-10-31T06:00:38;11.70;68.10
60495;DHT22;46342;49.046;11.920;2022-10-31T06:03:08;11.70;68.00
60495;DHT22;46342;49.046;11.920;2022-10-31T06:05:34;11.70;68.10
60495;DHT22;46342;49.046;11.920;2022-10-31T06:07:59;11.60;67.80
60495;DHT22;46342;49.046;11.920;2022-10-31T06:10:25;11.60;67.80
60495;DHT22;46342;49.046;11.920;2022-10-31T06:12:51;11.60;67.90
60495;DHT22;46342;49.046;11.920;2022-10-31T06:15:17;11.60;67.90
60495;DHT22;46342;49.046;11.920;2022-10-31T06:17:43;11.50;67.80
60495;DHT22;46342;49.046;11.920;2022-10-31T06:20:09;11.60;68.80
60495;DHT22;46342;49.046;11.920;2022-10-31T06:22:35;11.60;68.00
60495;DHT22;46342;49.046;11.920;2022-10-31T06:25:00;11.50;67.80
60495;DHT22;46342;49.046;11.920;2022-10-31T06:27:26;11.50;67.80
60495;DHT22;46342;49.046;11.920;2022-10-31T06:29:52;11.50;67.90
60495;DHT22;46342;49.046;11.920;2022-10-31T06:32:18;11.50;67.90
60495;DHT22;46342;49.046;11.920;2022-10-31T06:34:44;11.50;68.00
60495;DHT22;46342;49.046;11.920;2022-10-31T06:37:11;11.50;68.00
60495;DHT22;46342;49.046;11.920;2022-10-31T06:39:37;11.50;68.20
60495;DHT22;46342;49.046;11.920;2022-10-31T06:42:03;11.40;68.00
60495;DHT22;46342;49.046;11.920;2022-10-31T06:44:29;11.40;68.00
60495;DHT22;46342;49.046;11.920;2022-10-31T06:46:55;11.40;68.00
60495;DHT22;46342;49.046;11.920;2022-10-31T06:49:20;11.40;68.00
60495;DHT22;46342;49.046;11.920;2022-10-31T06:51:49;11.40;68.00
60495;DHT22;46342;49.046;11.920;2022-10-31T06:54:15;11.40;68.30
60495;DHT22;46342;49.046;11.920;2022-10-31T06:56:41;11.40;68.10
60495;DHT22;46342;49.046;11.920;2022-10-31T06:59:07;11.30;67.90
60495;DHT22;46342;49.046;11.920;2022-10-31T07:01:33;11.40;68.10
60495;DHT22;46342;49.046;11.920;2022-10-31T07:03:58;11.40;68.10
60495;DHT22;46342;49.046;11.920;2022-10-31T07:06:24;11.30;68.10
60495;DHT22;46342;49.046;11.920;2022-10-31T07:08:49;11.30;68.10
60495;DHT22;46342;49.046;11.920;2022-10-31T07:11:15;11.30;68.10
60495;DHT22;46342;49.046;11.920;2022-10-31T07:13:41;11.40;68.30
60495;DHT22;46342;49.046;11.920;2022-10-31T07:16:06;11.30;68.10
60495;DHT22;46342;49.046;11.920;2022-10-31T07:18:33;11.30;68.20
60495;DHT22;46342;49.046;11.920;2022-10-31T07:20:58;11.30;68.30
60495;DHT22;46342;49.046;11.920;2022-10-31T07:23:24;11.30;68.30
60495;DHT22;46342;49.046;11.920;2022-10-31T07:25:55;11.30;68.40
60495;DHT22;46342;49.046;11.920;2022-10-31T07:28:21;11.30;68.90
60495;DHT22;46342;49.046;11.920;2022-10-31T07:30:51;11.30;68.50
60495;DHT22;46342;49.046;11.920;2022-10-31T07:33:17;11.40;69.10
60495;DHT22;46342;49.046;11.920;2022-10-31T07:35:43;11.30;68.70
60495;DHT22;46342;49.046;11.920;2022-10-31T07:38:11;11.30;68.70
60495;DHT22;46342;49.046;11.920;2022-10-31T07:40:37;11.40;69.10
60495;DHT22;46342;49.046;11.920;2022-10-31T07:43:03;11.40;69.00
60495;DHT22;46342;49.046;11.920;2022-10-31T07:45:29;11.40;69.20
60495;DHT22;46342;49.046;11.920;2022-10-31T07:47:55;11.40;69.30
60495;DHT22;46342;49.046;11.920;2022-10-31T07:50:27;11.40;69.50
60495;DHT22;46342;49.046;11.920;2022-10-31T07:53:22;11.50;70.20
60495;DHT22;46342;49.046;11.920;2022-10-31T07:55:48;11.50;71.30
60495;DHT22;46342;49.046;11.920;2022-10-31T07:58:16;11.50;70.20
60495;DHT22;46342;49.046;11.920;2022-10-31T08:00:44;11.60;70.90
60495;DHT22;46342;49.046;11.920;2022-10-31T08:03:16;11.60;70.90
60495;DHT22;46342;49.046;11.920;2022-10-31T08:05:42;11.70;71.90
60495;DHT22;46342;49.046;11.920;2022-10-31T08:08:09;11.70;71.00
60495;DHT22;46342;49.046;11.920;2022-10-31T08:10:35;11.80;72.20
60495;DHT22;46342;49.046;11.920;2022-10-31T08:13:04;11.90;71.10
60495;DHT22;46342;49.046;11.920;2022-10-31T08:15:30;11.90;71.80
60495;DHT22;46342;49.046;11.920;2022-10-31T08:17:56;11.90;72.60
60495;DHT22;46342;49.046;11.920;2022-10-31T08:20:22;12.00;72.00
60495;DHT22;46342;49.046;11.920;2022-10-31T08:22:58;12.10;72.10
60495;DHT22;46342;49.046;11.920;2022-10-31T08:25:25;12.20;73.40
60495;DHT22;46342;49.046;11.920;2022-10-31T08:27:52;12.30;72.60
60495;DHT22;46342;49.046;11.920;2022-10-31T08:30:19;12.30;72.70
60495;DHT22;46342;49.046;11.920;2022-10-31T08:32:46;12.40;73.00
60495;DHT22;46342;49.046;11.920;2022-10-31T08:35:12;12.50;72.90
60495;DHT22;46342;49.046;11.920;2022-10-31T08:37:37;12.50;72.80
60495;DHT22;46342;49.046;11.920;2022-10-31T08:40:04;12.50;72.80
60495;DHT22;46342;49.046;11.920;2022-10-31T08:42:29;12.70;73.10
60495;DHT22;46342;49.046;11.920;2022-10-31T08:44:55;12.70;73.10
60495;DHT22;46342;49.046;11.920;2022-10-31T08:47:21;12.80;73.20
60495;DHT22;46342;49.046;11.920;2022-10-31T08:49:46;12.80;73.20
60495;DHT22;46342;49.046;11.920;2022-10-31T08:52:12;13.00;73.40
60495;DHT22;46342;49.046;11.920;2022-10-31T08:54:37;13.00;73.30
60495;DHT22;46342;49.046;11.920;2022-10-31T08:57:03;13.10;73.40
60495;DHT22;46342;49.046;11.920;2022-10-31T08:59:29;13.10;73.40
60495;DHT22;46342;49.046;11.920;2022-10-31T09:01:54;13.20;73.50
60495;DHT22;46342;49.046;11.920;2022-10-31T09:04:20;13.30;73.60
60495;DHT22;46342;49.046;11.920;2022-10-31T09:06:45;13.30;73.60
60495;DHT22;46342;49.046;11.920;2022-10-31T09:09:11;13.30;73.50
60495;DHT22;46342;49.046;11.920;2022-10-31T09:11:36;13.50;73.60
60495;DHT22;46342;49.046;11.920;2022-10-31T09:14:02;13.40;73.40
60495;DHT22;46342;49.046;11.920;2022-10-31T09:16:27;13.50;73.60
60495;DHT22;46342;49.046;11.920;2022-10-31T09:18:53;13.60;73.60
60495;DHT22;46342;49.046;11.920;2022-10-31T09:21:19;13.60;73.50
60495;DHT22;46342;49.046;11.920;2022-10-31T09:23:44;13.60;73.30
60495;DHT22;46342;49.046;11.920;2022-10-31T09:26:10;13.70;73.30
60495;DHT22;46342;49.046;11.920;2022-10-31T09:28:35;13.80;73.50
60495;DHT22;46342;49.046;11.920;2022-10-31T09:31:01;13.80;73.50
60495;DHT22;46342;49.046;11.920;2022-10-31T09:33:27;13.90;73.60
60495;DHT22;46342;49.046;11.920;2022-10-31T09:35:52;13.90;73.70
60495;DHT22;46342;49.046;11.920;2022-10-31T09:38:20;14.00;73.80
60495;DHT22;46342;49.046;11.920;2022-10-31T09:41:08;14.00;74.00
60495;DHT22;46342;49.046;11.920;2022-10-31T09:46:26;14.10;73.70
60495;DHT22;46342;49.046;11.920;2022-10-31T09:51:40;14.20;74.00
60495;DHT22;46342;49.046;11.920;2022-10-31T09:54:17;14.30;74.60
60495;DHT22;46342;49.046;11.920;2022-10-31T09:56:44;14.40;74.80
60495;DHT22;46342;49.046;11.920;2022-10-31T09:59:23;14.40;74.20
60495;DHT22;46342;49.046;11.920;2022-10-31T10:01:58;14.50;74.70
60495;DHT22;46342;49.046;11.920;2022-10-31T10:04:33;14.60;74.80
60495;DHT22;46342;49.046;11.920;2022-10-31T10:07:03;14.60;74.40
60495;DHT22;46342;49.046;11.920;2022-10-31T10:09:31;14.70;74.80
60495;DHT22;46342;49.046;11.920;2022-10-31T10:14:53;14.90;75.50
60495;DHT22;46342;49.046;11.920;2022-10-31T10:17:24;14.90;74.70
60495;DHT22;46342;49.046;11.920;2022-10-31T10:25:46;15.10;76.00
60495;DHT22;46342;49.046;11.920;2022-10-31T10:33:35;15.30;75.60
60495;DHT22;46342;49.046;11.920;2022-10-31T10:36:12;15.40;76.60
60495;DHT22;46342;49.046;11.920;2022-10-31T10:41:17;15.60;76.50
60495;DHT22;46342;49.046;11.920;2022-10-31T10:43:44;15.70;76.90
60495;DHT22;46342;49.046;11.920;2022-10-31T10:46:41;15.80;76.30
60495;DHT22;46342;49.046;11.920;2022-10-31T10:49:49;15.90;76.90
60495;DHT22;46342;49.046;11.920;2022-10-31T10:52:39;16.10;77.00
60495;DHT22;46342;49.046;11.920;2022-10-31T10:55:22;16.10;77.00
60495;DHT22;46342;49.046;11.920;2022-10-31T10:58:00;16.20;76.40
60495;DHT22;46342;49.046;11.920;2022-10-31T11:00:41;16.30;76.50
60495;DHT22;46342;49.046;11.920;2022-10-31T11:03:08;16.40;76.60
60495;DHT22;46342;49.046;11.920;2022-10-31T11:05:57;16.50;76.10
60495;DHT22;46342;49.046;11.920;2022-10-31T11:08:32;16.60;76.90
60495;DHT22;46342;49.046;11.920;2022-10-31T11:11:02;16.70;76.20
60495;DHT22;46342;49.046;11.920;2022-10-31T11:13:29;16.80;76.10
60495;DHT22;46342;49.046;11.920;2022-10-31T11:16:30;16.80;75.80
60495;DHT22;46342;49.046;11.920;2022-10-31T11:19:26;17.00;76.10
60495;DHT22;46342;49.046;11.920;2022-10-31T11:21:53;17.10;76.00
60495;DHT22;46342;49.046;11.920;2022-10-31T11:24:20;17.20;75.60
60495;DHT22;46342;49.046;11.920;2022-10-31T11:26:48;17.20;75.60
60495;DHT22;46342;49.046;11.920;2022-10-31T11:29:25;17.30;75.70
60495;DHT22;46342;49.046;11.920;2022-10-31T11:31:55;17.40;75.70
60495;DHT22;46342;49.046;11.920;2022-10-31T11:36:48;17.50;75.40
60495;DHT22;46342;49.046;11.920;2022-10-31T11:39:25;17.60;75.40
60495;DHT22;46342;49.046;11.920;2022-10-31T11:41:52;17.70;75.20
60495;DHT22;46342;49.046;11.920;2022-10-31T11:44:23;17.80;75.00
60495;DHT22;46342;49.046;11.920;2022-10-31T11:47:02;17.80;74.80
60495;DHT22;46342;49.046;11.920;2022-10-31T11:49:36;18.00;75.20
60495;DHT22;46342;49.046;11.920;2022-10-31T11:52:12;18.00;75.20
60495;DHT22;46342;49.046;11.920;2022-10-31T11:59:53;18.30;74.80
60495;DHT22;46342;49.046;11.920;2022-10-31T12:02:20;18.30;74.20
60495;DHT22;46342;49.046;11.920;2022-10-31T12:07:35;18.40;73.90
60495;DHT22;46342;49.046;11.920;2022-10-31T12:10:00;18.50;73.70
60495;DHT22;46342;49.046;11.920;2022-10-31T12:12:31;18.50;73.50
60495;DHT22;46342;49.046;11.920;2022-10-31T12:21:10;18.60;73.00
60495;DHT22;46342;49.046;11.920;2022-10-31T12:26:54;18.70;72.40
60495;DHT22;46342;49.046;11.920;2022-10-31T12:29:34;18.70;72.30
60495;DHT22;46342;49.046;11.920;2022-10-31T12:35:04;18.70;72.50
60495;DHT22;46342;49.046;11.920;2022-10-31T12:37:35;18.70;72.70
60495;DHT22;46342;49.046;11.920;2022-10-31T12:40:11;18.80;72.70
60495;DHT22;46342;49.046;11.920;2022-10-31T12:42:57;18.80;72.60
60495;DHT22;46342;49.046;11.920;2022-10-31T12:59:13;19.10;72.00
60495;DHT22;46342;49.046;11.920;2022-10-31T13:01:47;19.00;72.10
60495;DHT22;46342;49.046;11.920;2022-10-31T13:07:05;19.10;71.80
60495;DHT22;46342;49.046;11.920;2022-10-31T13:09:53;19.10;71.60
60495;DHT22;46342;49.046;11.920;2022-10-31T13:12:22;19.10;71.10
60495;DHT22;46342;49.046;11.920;2022-10-31T13:14:52;19.10;71.40
60495;DHT22;46342;49.046;11.920;2022-10-31T13:17:42;19.10;71.10
60495;DHT22;46342;49.046;11.920;2022-10-31T13:22:39;19.20;71.20
60495;DHT22;46342;49.046;11.920;2022-10-31T13:25:19;19.20;71.20
60495;DHT22;46342;49.046;11.920;2022-10-31T13:27:54;19.20;70.40
60495;DHT22;46342;49.046;11.920;2022-10-31T13:30:23;19.30;70.20
60495;DHT22;46342;49.046;11.920;2022-10-31T13:33:13;19.20;70.60
60495;DHT22;46342;49.046;11.920;2022-10-31T13:35:51;19.30;70.30
60495;DHT22;46342;49.046;11.920;2022-10-31T13:44:11;19.30;70.50
60495;DHT22;46342;49.046;11.920;2022-10-31T13:46:40;19.30;70.00
60495;DHT22;46342;49.046;11.920;2022-10-31T13:52:04;19.30;69.70
60495;DHT22;46342;49.046;11.920;2022-10-31T13:54:34;19.30;69.80
60495;DHT22;46342;49.046;11.920;2022-10-31T13:57:00;19.30;70.10
60495;DHT22;46342;49.046;11.920;2022-10-31T13:59:28;19.20;70.20
60495;DHT22;46342;49.046;11.920;2022-10-31T14:02:01;19.20;70.00
60495;DHT22;46342;49.046;11.920;2022-10-31T14:07:16;19.20;70.20
60495;DHT22;46342;49.046;11.920;2022-10-31T14:10:02;19.20;69.40
60495;DHT22;46342;49.046;11.920;2022-10-31T14:12:31;19.20;69.60
60495;DHT22;46342;49.046;11.920;2022-10-31T14:15:04;19.20;69.90
60495;DHT22;46342;49.046;11.920;2022-10-31T14:17:38;19.20;69.70
60495;DHT22;46342;49.046;11.920;2022-10-31T14:22:37;19.20;69.60
60495;DHT22;46342;49.046;11.920;2022-10-31T14:25:27;19.20;69.90
60495;DHT22;46342;49.046;11.920;2022-10-31T14:27:53;19.20;69.10
60495;DHT22;46342;49.046;11.920;2022-10-31T14:30:24;19.20;69.90
60495;DHT22;46342;49.046;11.920;2022-10-31T14:33:16;19.20;69.90
60495;DHT22;46342;49.046;11.920;2022-10-31T14:36:03;19.30;69.40
60495;DHT22;46342;49.046;11.920;2022-10-31T14:52:17;19.30;68.50
60495;DHT22;46342;49.046;11.920;2022-10-31T14:54:47;19.30;69.20
60495;DHT22;46342;49.046;11.920;2022-10-31T14:57:19;19.30;69.10
60495;DHT22;46342;49.046;11.920;2022-10-31T14:59:50;19.30;69.10
60495;DHT22;46342;49.046;11.920;2022-10-31T15:02:22;19.30;69.10
60495;DHT22;46342;49.046;11.920;2022-10-31T15:04:51;19.20;69.30
60495;DHT22;46342;49.046;11.920;2022-10-31T15:07:24;19.20;69.00
60495;DHT22;46342;49.046;11.920;2022-10-31T15:14:50;19.20;69.10
60495;DHT22;46342;49.046;11.920;2022-10-31T15:17:17;19.20;69.20
60495;DHT22;46342;49.046;11.920;2022-10-31T15:19:43;19.10;69.20
60495;DHT22;46342;49.046;11.920;2022-10-31T15:22:22;19.10;69.10
60495;DHT22;46342;49.046;11.920;2022-10-31T15:24:49;19.10;68.70
60495;DHT22;46342;49.046;11.920;2022-10-31T15:27:21;19.10;69.20
60495;DHT22;46342;49.046;11.920;2022-10-31T15:29:52;19.10;68.80
60495;DHT22;46342;49.046;11.920;2022-10-31T15:32:26;19.00;68.40
60495;DHT22;46342;49.046;11.920;2022-10-31T15:34:54;19.00;68.20
60495;DHT22;46342;49.046;11.920;2022-10-31T15:37:21;18.90;68.40
60495;DHT22;46342;49.046;11.920;2022-10-31T15:39:49;18.90;69.30
60495;DHT22;46342;49.046;11.920;2022-10-31T15:42:28;18.90;68.30
60495;DHT22;46342;49.046;11.920;2022-10-31T15:45:02;18.80;68.00
60495;DHT22;46342;49.046;11.920;2022-10-31T15:47:31;18.80;67.80
60495;DHT22;46342;49.046;11.920;2022-10-31T15:49:59;18.70;67.90
60495;DHT22;46342;49.046;11.920;2022-10-31T15:52:40;18.60;67.80
60495;DHT22;46342;49.046;11.920;2022-10-31T15:55:19;18.60;67.60
60495;DHT22;46342;49.046;11.920;2022-10-31T15:57:49;18.60;67.60
60495;DHT22;46342;49.046;11.920;2022-10-31T16:05:53;18.40;67.40
60495;DHT22;46342;49.046;11.920;2022-10-31T16:13:33;18.20;67.40
60495;DHT22;46342;49.046;11.920;2022-10-31T16:16:02;18.10;67.20
60495;DHT22;46342;49.046;11.920;2022-10-31T16:18:30;18.10;67.50
60495;DHT22;46342;49.046;11.920;2022-10-31T16:21:00;18.00;67.50
60495;DHT22;46342;49.046;11.920;2022-10-31T16:23:26;17.90;67.60
60495;DHT22;46342;49.046;11.920;2022-10-31T16:25:53;17.90;67.60
60495;DHT22;46342;49.046;11.920;2022-10-31T16:28:26;17.80;67.70
60495;DHT22;46342;49.046;11.920;2022-10-31T16:30:54;17.70;67.60
60495;DHT22;46342;49.046;11.920;2022-10-31T16:35:57;17.70;67.70
60495;DHT22;46342;49.046;11.920;2022-10-31T16:38:23;17.60;67.70
60495;DHT22;46342;49.046;11.920;2022-10-31T16:40:49;17.50;67.60
60495;DHT22;46342;49.046;11.920;2022-10-31T16:43:17;17.50;67.80
60495;DHT22;46342;49.046;11.920;2022-10-31T16:45:45;17.40;67.70
60495;DHT22;46342;49.046;11.920;2022-10-31T16:48:14;17.40;67.80
60495;DHT22;46342;49.046;11.920;2022-10-31T16:50:41;17.40;68.00
60495;DHT22;46342;49.046;11.920;2022-10-31T16:53:07;17.30;68.00
60495;DHT22;46342;49.046;11.920;2022-10-31T16:55:33;17.30;68.10
60495;DHT22;46342;49.046;11.920;2022-10-31T16:58:01;17.20;68.10
60495;DHT22;46342;49.046;11.920;2022-10-31T17:00:27;17.20;68.40
60495;DHT22;46342;49.046;11.920;2022-10-31T17:02:55;17.20;68.50
60495;DHT22;46342;49.046;11.920;2022-10-31T17:05:24;17.10;68.50
60495;DHT22;46342;49.046;11.920;2022-10-31T17:07:55;17.10;68.60
60495;DHT22;46342;49.046;11.920;2022-10-31T17:10:21;17.10;68.60
60495;DHT22;46342;49.046;11.920;2022-10-31T17:12:48;17.10;68.60
60495;DHT22;46342;49.046;11.920;2022-10-31T17:15:25;17.00;68.40
60495;DHT22;46342;49.046;11.920;2022-10-31T17:17:52;17.00;68.60
60495;DHT22;46342;49.046;11.920;2022-10-31T17:20:27;17.00;68.50
60495;DHT22;46342;49.046;11.920;2022-10-31T17:22:54;17.00;68.60
60495;DHT22;46342;49.046;11.920;2022-10-31T17:25:22;16.90;68.40
60495;DHT22;46342;49.046;11.920;2022-10-31T17:27:49;16.80;68.20
60495;DHT22;46342;49.046;11.920;2022-10-31T17:30:16;16.80;68.10
60495;DHT22;46342;49.046;11.920;2022-10-31T17:32:43;16.80;68.10
60495;DHT22;46342;49.046;11.920;2022-10-31T17:35:09;16.70;68.00
60495;DHT22;46342;49.046;11.920;2022-10-31T17:37:36;16.70;68.10
60495;DHT22;46342;49.046;11.920;2022-10-31T17:40:02;16.60;68.00
60495;DHT22;46342;49.046;11.920;2022-10-31T17:42:28;16.60;68.00
60495;DHT22;46342;49.046;11.920;2022-10-31T17:44:53;16.50;67.90
60495;DHT22;46342;49.046;11.920;2022-10-31T17:47:19;16.50;67.90